Time;durP1;ratioP1;P1;durP2;ratioP2;P2;SDS_P1;SDS_P2;PMS_P1;PMS_P2;Temp;Humidity;BMP_temperature;BMP_pressure;BME280_temperature;BME280_humidity;BME280_pressure;Samples;Min_cycle;Max_cycle;Signal;HPM_P1;HPM_P2
2023/04/16 00:02:11;;;;;;;64.28;26.98;;;9.10;99.90;;;;;;5155559;27;20057;-61
2023/04/16 00:04:37;;;;;;;55.50;25.55;;;9.10;99.90;;;;;;5155183;27;20035;-60
2023/04/16 00:07:03;;;;;;;65.75;26.30;;;9.10;99.90;;;;;;5155331;27;20045;-60
2023/04/16 00:09:28;;;;;;;69.45;27.05;;;9.20;99.90;;;;;;5155555;27;20031;-61
2023/04/16 00:11:54;;;;;;;61.72;25.65;;;9.10;99.90;;;;;;5155333;27;20388;-60
2023/04/16 00:14:20;;;;;;;61.25;26.95;;;9.10;99.90;;;;;;5152853;27;20034;-60
2023/04/16 00:16:45;;;;;;;61.33;25.95;;;9.20;99.90;;;;;;5152125;27;20113;-61
2023/04/16 00:19:11;;;;;;;65.85;26.80;;;9.10;99.90;;;;;;5135906;27;20038;-60
2023/04/16 00:21:37;;;;;;;55.13;26.10;;;9.20;99.90;;;;;;5154869;27;20035;-60
2023/04/16 00:24:03;;;;;;;59.58;26.90;;;9.10;99.90;;;;;;5136709;27;20041;-60
2023/04/16 00:26:28;;;;;;;63.88;27.70;;;9.20;99.90;;;;;;5154716;27;20039;-61
2023/04/16 00:28:54;;;;;;;62.10;27.45;;;9.20;99.90;;;;;;5136146;27;20082;-60
2023/04/16 00:31:31;;;;;;;63.80;27.70;;;9.20;99.90;;;;;;5155156;27;20115;-61
2023/04/16 00:33:57;;;;;;;65.97;28.42;;;9.10;99.90;;;;;;5154716;27;20471;-60
2023/04/16 00:36:24;;;;;;;62.30;27.95;;;9.10;99.90;;;;;;5135389;27;20042;-61
2023/04/16 00:38:50;;;;;;;50.25;25.08;;;9.20;99.90;;;;;;5154542;27;20041;-60
2023/04/16 00:41:16;;;;;;;50.97;25.83;;;9.10;99.90;;;;;;5154839;27;20418;-61
2023/04/16 00:43:42;;;;;;;48.13;27.00;;;9.10;99.90;;;;;;5154438;27;20053;-60
2023/04/16 00:46:08;;;;;;;55.17;28.75;;;9.10;99.90;;;;;;5154552;27;20376;-61
2023/04/16 00:48:36;;;;;;;66.60;29.27;;;9.00;99.90;;;;;;5154335;27;20441;-67
2023/04/16 00:51:05;;;;;;;51.00;27.67;;;9.00;99.90;;;;;;5154229;27;20476;-60
2023/04/16 00:53:31;;;;;;;53.05;28.73;;;9.10;99.90;;;;;;5154716;27;20061;-60
2023/04/16 00:55:57;;;;;;;54.28;28.33;;;9.00;99.90;;;;;;5154279;27;20123;-60
2023/04/16 00:58:24;;;;;;;60.67;29.85;;;8.90;99.90;;;;;;5154299;27;20070;-60
2023/04/16 01:00:50;;;;;;;53.05;29.35;;;8.90;99.90;;;;;;5136127;27;20081;-60
2023/04/16 01:03:16;;;;;;;45.97;24.38;;;9.00;99.90;;;;;;5135675;27;20074;-61
2023/04/16 01:05:42;;;;;;;53.30;29.50;;;8.90;99.90;;;;;;5153993;27;20113;-60
2023/04/16 01:08:16;;;;;;;53.90;30.42;;;8.90;99.90;;;;;;5154034;27;20405;-60
2023/04/16 01:10:42;;;;;;;52.88;28.40;;;9.00;99.90;;;;;;5135795;27;20039;-60
2023/04/16 01:13:07;;;;;;;55.15;29.67;;;8.90;99.90;;;;;;5153978;27;20159;-60
2023/04/16 01:15:33;;;;;;;63.20;31.13;;;8.90;99.90;;;;;;5154050;27;20043;-60
2023/04/16 01:17:58;;;;;;;56.20;29.70;;;8.90;99.90;;;;;;5154099;27;20034;-60
2023/04/16 01:20:24;;;;;;;68.80;32.17;;;9.00;99.90;;;;;;5154174;27;20034;-61
2023/04/16 01:22:50;;;;;;;63.28;32.10;;;8.90;99.90;;;;;;5154356;27;20038;-61
2023/04/16 01:25:15;;;;;;;56.00;30.38;;;8.90;99.90;;;;;;5154053;27;20039;-60
2023/04/16 01:27:41;;;;;;;62.83;30.25;;;8.90;99.90;;;;;;5154149;27;20416;-61
2023/04/16 01:30:07;;;;;;;76.88;30.80;;;9.00;99.90;;;;;;5159975;27;20083;-60
2023/04/16 01:32:33;;;;;;;58.47;28.67;;;8.90;99.90;;;;;;5160799;27;20488;-61
2023/04/16 01:34:58;;;;;;;70.30;30.00;;;9.00;99.90;;;;;;5141717;27;20112;-60
2023/04/16 01:37:24;;;;;;;71.32;30.23;;;8.90;99.90;;;;;;5152312;27;20039;-61
2023/04/16 01:39:50;;;;;;;71.85;31.50;;;9.00;99.90;;;;;;5140137;27;20496;-61
2023/04/16 01:42:15;;;;;;;66.57;28.58;;;8.90;99.90;;;;;;5139606;27;20039;-60
2023/04/16 01:44:41;;;;;;;68.63;31.25;;;9.00;99.90;;;;;;5121295;27;20039;-60
2023/04/16 01:47:07;;;;;;;65.82;30.17;;;9.00;99.90;;;;;;5139791;27;20039;-60
2023/04/16 01:49:33;;;;;;;72.15;32.65;;;9.00;99.90;;;;;;5140143;27;20106;-60
2023/04/16 01:51:59;;;;;;;71.78;31.80;;;9.00;99.90;;;;;;5139924;27;20031;-60
2023/04/16 01:54:25;;;;;;;64.18;29.00;;;9.00;99.90;;;;;;5139855;27;20043;-61
2023/04/16 01:56:50;;;;;;;68.43;31.42;;;9.00;99.90;;;;;;5139922;27;20039;-60
2023/04/16 01:59:16;;;;;;;73.95;32.35;;;8.90;99.90;;;;;;5139656;27;20035;-60
2023/04/16 02:01:42;;;;;;;68.30;32.58;;;8.90;99.90;;;;;;5139534;27;20042;-60
2023/04/16 02:04:08;;;;;;;65.25;31.60;;;9.10;99.90;;;;;;5140090;27;20035;-60
2023/04/16 02:06:34;;;;;;;71.65;28.65;;;9.00;99.90;;;;;;5139940;27;20121;-61
2023/04/16 02:08:59;;;;;;;79.20;33.15;;;9.00;99.90;;;;;;5139526;27;20172;-61
2023/04/16 02:11:25;;;;;;;99.22;34.30;;;8.90;99.90;;;;;;5140178;27;20035;-61
2023/04/16 02:13:51;;;;;;;91.32;33.65;;;9.00;99.90;;;;;;5139973;27;20039;-60
2023/04/16 02:16:16;;;;;;;79.15;32.83;;;9.00;99.90;;;;;;5139825;27;20120;-60
2023/04/16 02:18:42;;;;;;;88.30;34.08;;;9.00;99.90;;;;;;5139563;27;20067;-60
2023/04/16 02:21:08;;;;;;;90.35;37.85;;;8.90;99.90;;;;;;5139797;27;20038;-61
2023/04/16 02:23:33;;;;;;;70.40;29.23;;;9.00;99.90;;;;;;5139588;27;20042;-60
2023/04/16 02:25:59;;;;;;;75.80;31.73;;;9.00;99.90;;;;;;5121199;27;20039;-60
2023/04/16 02:28:25;;;;;;;78.18;32.58;;;9.00;99.90;;;;;;5139490;27;20031;-60
2023/04/16 02:30:51;;;;;;;69.03;30.95;;;8.90;99.90;;;;;;5139367;27;20031;-60
2023/04/16 02:33:16;;;;;;;63.28;30.38;;;8.90;99.90;;;;;;5139727;27;20039;-60
2023/04/16 02:35:42;;;;;;;63.45;30.85;;;8.90;99.90;;;;;;5139229;27;20056;-60
2023/04/16 02:38:08;;;;;;;68.28;28.85;;;8.90;99.90;;;;;;5121142;27;20059;-60
2023/04/16 02:40:33;;;;;;;61.85;27.50;;;9.00;99.90;;;;;;5137092;27;20049;-61
2023/04/16 02:42:59;;;;;;;72.57;31.13;;;9.00;99.90;;;;;;5136573;27;20522;-60
2023/04/16 02:45:25;;;;;;;74.53;32.63;;;9.00;99.90;;;;;;5116931;27;20096;-60
2023/04/16 02:47:51;;;;;;;61.30;30.38;;;8.90;99.90;;;;;;5117467;27;20035;-60
2023/04/16 02:50:17;;;;;;;70.18;30.80;;;8.90;99.90;;;;;;5135514;27;20099;-60
2023/04/16 02:52:43;;;;;;;70.50;30.75;;;9.00;99.90;;;;;;5136084;27;20031;-60
2023/04/16 02:55:09;;;;;;;72.68;29.80;;;8.90;99.90;;;;;;5116974;27;20061;-60
2023/04/16 02:57:35;;;;;;;65.70;29.70;;;9.00;99.90;;;;;;5135808;27;20044;-60
2023/04/16 03:00:03;;;;;;;68.30;30.85;;;9.00;99.90;;;;;;5135706;27;20500;-60
2023/04/16 03:02:28;;;;;;;82.88;31.42;;;9.00;99.90;;;;;;5135860;27;20194;-60
2023/04/16 03:04:54;;;;;;;88.72;32.63;;;9.00;99.90;;;;;;5136041;27;20130;-60
2023/04/16 03:07:20;;;;;;;70.13;29.80;;;8.80;99.90;;;;;;5135747;27;20362;-60
2023/04/16 03:09:46;;;;;;;71.20;30.08;;;8.80;99.90;;;;;;5135619;27;20488;-60
2023/04/16 03:12:11;;;;;;;84.63;31.88;;;8.90;99.90;;;;;;5117406;27;20050;-60
2023/04/16 03:14:37;;;;;;;67.32;29.50;;;8.90;99.90;;;;;;5117700;27;20394;-61
2023/04/16 03:17:02;;;;;;;61.92;29.38;;;8.80;99.90;;;;;;5135546;27;20354;-61
2023/04/16 03:19:28;;;;;;;75.97;29.42;;;8.90;99.90;;;;;;5135626;27;20050;-60
2023/04/16 03:21:54;;;;;;;69.45;29.05;;;8.90;99.90;;;;;;5135508;27;20051;-60
2023/04/16 03:24:20;;;;;;;68.10;29.65;;;8.90;99.90;;;;;;5135216;27;20087;-61
2023/04/16 03:26:46;;;;;;;69.25;28.17;;;8.90;99.90;;;;;;5135314;27;20434;-60
2023/04/16 03:29:11;;;;;;;83.07;29.60;;;8.90;99.90;;;;;;5135609;27;20031;-61
2023/04/16 03:31:37;;;;;;;79.15;29.05;;;8.80;99.90;;;;;;5135267;27;20028;-60
2023/04/16 03:34:03;;;;;;;69.30;26.77;;;8.80;99.90;;;;;;5135491;27;20042;-60
2023/04/16 03:36:28;;;;;;;74.70;28.90;;;8.80;99.90;;;;;;5135154;27;20054;-60
2023/04/16 03:38:54;;;;;;;64.60;26.52;;;8.80;99.90;;;;;;5149406;27;20051;-60
2023/04/16 03:41:20;;;;;;;50.17;22.98;;;8.80;99.90;;;;;;5155896;27;20045;-60
2023/04/16 03:43:45;;;;;;;60.95;23.63;;;8.70;99.90;;;;;;5155755;27;20035;-60
2023/04/16 03:46:11;;;;;;;62.03;26.85;;;8.80;99.90;;;;;;5155586;27;20039;-61
2023/04/16 03:48:36;;;;;;;87.55;27.40;;;8.80;99.90;;;;;;5155443;27;20039;-60
2023/04/16 03:51:02;;;;;;;76.03;26.58;;;8.70;99.90;;;;;;5155839;27;20160;-60
2023/04/16 03:53:28;;;;;;;67.95;25.52;;;8.70;99.90;;;;;;5155227;27;20022;-60
2023/04/16 03:55:54;;;;;;;71.13;26.95;;;8.80;99.90;;;;;;5155535;27;20043;-60
2023/04/16 03:58:20;;;;;;;57.88;24.35;;;8.80;99.90;;;;;;5155697;27;20026;-60
2023/04/16 04:00:46;;;;;;;66.90;26.33;;;8.70;99.90;;;;;;5155214;27;20388;-60
2023/04/16 04:03:12;;;;;;;69.22;25.17;;;8.70;99.90;;;;;;5155612;27;20041;-60
2023/04/16 04:05:41;;;;;;;63.40;25.30;;;8.80;99.90;;;;;;5155293;27;20041;-61
2023/04/16 04:08:07;;;;;;;;;;;8.80;99.90;;;;;;5148938;27;20132;-60
2023/04/16 04:10:34;;;;;;;58.95;24.48;;;8.80;99.90;;;;;;5134393;27;20380;-61
2023/04/16 04:13:04;;;;;;;68.05;27.52;;;8.60;99.90;;;;;;5134402;27;20031;-60
2023/04/16 04:15:31;;;;;;;66.95;24.50;;;8.70;99.90;;;;;;5116063;27;20039;-60
2023/04/16 04:17:56;;;;;;;61.47;26.35;;;8.70;99.90;;;;;;5134207;27;20537;-60
2023/04/16 04:20:22;;;;;;;59.55;25.27;;;8.70;99.90;;;;;;5115849;27;20039;-60
2023/04/16 04:22:49;;;;;;;67.70;24.00;;;8.70;99.90;;;;;;5134462;27;20118;-60
2023/04/16 04:25:15;;;;;;;70.18;26.33;;;8.70;99.90;;;;;;5134417;27;20049;-60
2023/04/16 04:27:41;;;;;;;86.53;26.50;;;8.80;99.90;;;;;;5134404;27;20039;-61
2023/04/16 04:30:07;;;;;;;75.15;25.98;;;8.60;99.90;;;;;;5134339;27;20031;-60
2023/04/16 04:32:33;;;;;;;65.28;26.13;;;8.60;99.90;;;;;;5115900;27;20421;-60
2023/04/16 04:35:01;;;;;;;61.13;26.70;;;8.70;99.90;;;;;;5134114;27;20097;-61
2023/04/16 04:37:27;;;;;;;71.60;25.88;;;8.90;99.90;;;;;;5134179;27;20043;-60
2023/04/16 04:39:52;;;;;;;64.63;25.63;;;8.70;99.90;;;;;;5133724;27;20039;-60
2023/04/16 04:42:19;;;;;;;67.10;25.83;;;8.60;99.90;;;;;;5115117;27;20054;-61
2023/04/16 04:44:45;;;;;;;74.63;23.90;;;8.70;99.90;;;;;;5133550;27;20042;-60
2023/04/16 04:47:11;;;;;;;61.67;25.88;;;8.70;99.90;;;;;;5134337;27;20084;-61
2023/04/16 04:49:37;;;;;;;56.63;24.75;;;8.70;99.90;;;;;;5133965;27;20821;-60
2023/04/16 04:52:03;;;;;;;70.78;26.83;;;8.70;99.90;;;;;;5133988;27;20041;-60
2023/04/16 04:54:30;;;;;;;59.63;24.58;;;8.60;99.90;;;;;;5133657;27;20070;-60
2023/04/16 04:56:56;;;;;;;59.35;23.95;;;8.60;99.90;;;;;;5133845;27;20038;-60
2023/04/16 04:59:22;;;;;;;66.28;24.58;;;8.70;99.90;;;;;;5133367;27;20046;-60
2023/04/16 05:01:48;;;;;;;57.65;24.90;;;8.60;99.90;;;;;;5133697;27;20031;-60
2023/04/16 05:04:14;;;;;;;51.40;23.27;;;8.60;99.90;;;;;;5132737;27;20046;-60
2023/04/16 05:06:43;;;;;;;41.15;21.52;;;8.70;99.90;;;;;;5133170;27;20036;-60
2023/04/16 05:09:10;;;;;;;52.80;23.02;;;8.70;99.90;;;;;;5133370;27;20035;-60
2023/04/16 05:11:40;;;;;;;49.65;22.55;;;8.60;99.90;;;;;;5133532;27;20043;-60
2023/04/16 05:14:06;;;;;;;58.58;24.13;;;8.70;99.90;;;;;;5133753;27;20521;-59
2023/04/16 05:16:32;;;;;;;60.28;23.13;;;8.60;99.90;;;;;;5133434;27;20043;-60
2023/04/16 05:18:57;;;;;;;45.08;22.60;;;8.70;99.90;;;;;;5115191;27;20042;-61
2023/04/16 05:21:25;;;;;;;55.45;25.52;;;8.60;99.90;;;;;;5133337;27;20038;-60
2023/04/16 05:23:50;;;;;;;57.92;23.75;;;8.70;99.90;;;;;;5133534;27;20504;-61
2023/04/16 05:26:16;;;;;;;47.42;22.00;;;8.70;99.90;;;;;;5133281;27;20039;-60
2023/04/16 05:28:41;;;;;;;75.63;25.27;;;8.50;99.90;;;;;;5114995;28;20366;-60
2023/04/16 05:31:07;;;;;;;44.90;21.45;;;8.60;99.90;;;;;;5133227;28;20046;-61
2023/04/16 05:33:33;;;;;;;49.33;21.02;;;8.70;99.90;;;;;;5133555;28;20042;-60
2023/04/16 05:35:58;;;;;;;42.97;20.60;;;8.70;99.90;;;;;;5132746;27;20093;-60
2023/04/16 05:38:24;;;;;;;46.92;22.38;;;8.60;99.90;;;;;;5133033;27;20070;-61
2023/04/16 05:40:50;;;;;;;63.70;23.52;;;8.60;99.90;;;;;;5117056;27;20039;-60
2023/04/16 05:43:16;;;;;;;49.45;22.75;;;8.60;99.90;;;;;;5153432;27;20117;-61
2023/04/16 05:45:41;;;;;;;60.30;25.45;;;8.70;99.90;;;;;;5153897;27;20035;-60
2023/04/16 05:48:11;;;;;;;49.67;21.55;;;8.60;99.90;;;;;;5153600;27;20031;-60
2023/04/16 05:50:37;;;;;;;64.47;22.00;;;8.70;99.90;;;;;;5153767;27;20038;-60
2023/04/16 05:53:08;;;;;;;54.38;23.10;;;8.70;99.90;;;;;;5153489;27;20045;-60
2023/04/16 05:55:35;;;;;;;55.78;22.48;;;8.80;99.90;;;;;;5135502;27;20121;-60
2023/04/16 05:58:03;;;;;;;54.75;23.35;;;8.80;99.90;;;;;;5153811;27;20392;-60
2023/04/16 06:00:29;;;;;;;55.50;22.30;;;8.70;99.90;;;;;;5153198;27;20050;-61
2023/04/16 06:02:55;;;;;;;53.97;23.27;;;8.80;99.90;;;;;;5153850;27;20041;-60
2023/04/16 06:05:21;;;;;;;63.63;23.92;;;8.80;99.90;;;;;;5153941;27;20121;-60
2023/04/16 06:07:46;;;;;;;72.65;25.25;;;8.80;99.90;;;;;;5153443;27;20473;-60
2023/04/16 06:10:12;;;;;;;56.85;24.13;;;8.70;99.90;;;;;;5153617;27;20031;-60
2023/04/16 06:12:38;;;;;;;69.22;23.63;;;8.80;99.90;;;;;;5153300;27;20045;-60
2023/04/16 06:15:04;;;;;;;73.45;22.42;;;8.80;99.90;;;;;;5136489;27;20071;-60
2023/04/16 06:17:30;;;;;;;75.40;23.83;;;8.80;99.90;;;;;;5144438;27;20083;-59
2023/04/16 06:19:55;;;;;;;53.75;22.77;;;8.90;99.90;;;;;;5157675;27;20046;-60
2023/04/16 06:22:21;;;;;;;63.92;22.40;;;8.90;99.90;;;;;;5157352;27;20035;-60
2023/04/16 06:24:47;;;;;;;58.67;20.70;;;8.90;99.90;;;;;;5157513;27;20037;-60
2023/04/16 06:27:12;;;;;;;67.25;22.42;;;9.10;99.90;;;;;;5156950;27;20034;-60
2023/04/16 06:29:38;;;;;;;61.75;22.55;;;9.00;99.90;;;;;;5152901;27;20411;-60
2023/04/16 06:32:04;;;;;;;62.63;21.15;;;9.00;99.90;;;;;;5157554;27;20038;-60
2023/04/16 06:34:30;;;;;;;63.35;20.42;;;9.00;99.90;;;;;;5156823;27;20415;-61
2023/04/16 06:36:55;;;;;;;53.28;17.33;;;9.10;99.90;;;;;;5156475;27;20055;-60
2023/04/16 06:39:21;;;;;;;51.20;20.10;;;9.20;99.90;;;;;;5157079;27;20039;-60
2023/04/16 06:41:47;;;;;;;45.22;19.13;;;9.30;99.90;;;;;;5146069;27;20038;-61
2023/04/16 06:44:13;;;;;;;61.20;19.83;;;9.30;99.90;;;;;;5136303;27;20047;-61
2023/04/16 06:46:39;;;;;;;47.95;20.33;;;9.30;99.90;;;;;;5136305;27;20051;-60
2023/04/16 06:49:06;;;;;;;65.75;21.38;;;9.50;99.90;;;;;;5136490;27;20184;-60
2023/04/16 06:51:32;;;;;;;55.95;20.50;;;9.40;99.90;;;;;;5136020;27;20438;-61
2023/04/16 06:53:58;;;;;;;51.92;20.10;;;9.50;99.90;;;;;;5136357;27;20122;-61
2023/04/16 06:56:23;;;;;;;61.30;20.48;;;9.50;99.90;;;;;;5136149;27;20117;-61
2023/04/16 06:58:50;;;;;;;72.53;21.60;;;9.60;99.90;;;;;;5136127;27;20049;-60
2023/04/16 07:01:16;;;;;;;56.97;20.00;;;9.50;99.90;;;;;;5136017;27;20058;-60
2023/04/16 07:03:42;;;;;;;48.20;19.13;;;9.60;99.90;;;;;;5135824;27;20055;-61
2023/04/16 07:06:08;;;;;;;49.97;20.83;;;9.70;99.90;;;;;;5135577;27;20039;-61
2023/04/16 07:08:34;;;;;;;42.78;18.75;;;9.60;99.90;;;;;;5137190;27;20861;-60
2023/04/16 07:11:00;;;;;;;49.35;18.52;;;9.60;99.90;;;;;;5156383;27;20433;-60
2023/04/16 07:13:26;;;;;;;46.88;20.50;;;9.50;99.90;;;;;;5156407;27;20038;-60
2023/04/16 07:15:52;;;;;;;46.75;18.13;;;9.40;99.90;;;;;;5156168;27;20046;-60
2023/04/16 07:18:18;;;;;;;54.53;19.05;;;9.50;99.90;;;;;;5156350;27;20043;-61
2023/04/16 07:20:43;;;;;;;51.05;21.23;;;9.60;99.90;;;;;;5156205;27;20039;-60
2023/04/16 07:23:09;;;;;;;53.72;20.55;;;9.60;99.90;;;;;;5156603;27;20080;-60
2023/04/16 07:25:34;;;;;;;53.88;19.30;;;9.60;99.90;;;;;;5156165;27;20045;-61
2023/04/16 07:28:01;;;;;;;46.47;17.90;;;9.60;99.90;;;;;;5156021;27;20083;-60
2023/04/16 07:30:32;;;;;;;52.72;20.40;;;9.70;99.90;;;;;;5156277;27;20397;-60
2023/04/16 07:32:59;;;;;;;34.97;15.85;;;9.70;99.90;;;;;;5156176;27;20045;-60
2023/04/16 07:35:27;;;;;;;44.03;16.92;;;9.80;99.90;;;;;;5155918;27;20134;-61
2023/04/16 07:37:52;;;;;;;45.65;18.50;;;9.70;99.90;;;;;;5156106;27;20503;-61
2023/04/16 07:40:18;;;;;;;45.08;18.25;;;9.60;99.90;;;;;;5156085;27;20035;-60
2023/04/16 07:42:43;;;;;;;57.58;18.92;;;9.70;99.90;;;;;;5156328;27;20042;-61
2023/04/16 07:45:09;;;;;;;35.65;15.85;;;9.60;99.90;;;;;;5137250;27;20043;-61
2023/04/16 07:47:35;;;;;;;58.40;19.13;;;9.70;99.90;;;;;;5156224;27;20041;-61
2023/04/16 07:50:01;;;;;;;38.53;16.10;;;9.80;99.90;;;;;;5155833;27;20038;-61
2023/04/16 07:52:26;;;;;;;45.42;16.30;;;9.80;99.90;;;;;;5136778;27;20043;-61
2023/04/16 07:54:52;;;;;;;36.15;16.17;;;9.80;99.90;;;;;;5155596;27;20039;-61
2023/04/16 07:57:18;;;;;;;49.22;19.85;;;9.80;99.90;;;;;;5155898;27;20034;-61
2023/04/16 07:59:43;;;;;;;39.35;15.07;;;9.80;99.90;;;;;;5155744;27;20081;-60
2023/04/16 08:02:13;;;;;;;49.42;17.55;;;9.90;99.90;;;;;;5155233;27;20034;-60
2023/04/16 08:04:40;;;;;;;42.70;17.88;;;9.90;99.90;;;;;;5155507;27;20388;-60
2023/04/16 08:07:06;;;;;;;49.70;18.83;;;9.90;99.90;;;;;;5136365;27;20401;-60
2023/04/16 08:09:32;;;;;;;39.53;17.42;;;10.10;99.90;;;;;;5154903;27;20034;-60
2023/04/16 08:11:59;;;;;;;50.58;18.42;;;10.10;99.90;;;;;;5155314;27;20042;-61
2023/04/16 08:14:25;;;;;;;42.88;16.50;;;10.00;99.90;;;;;;5136723;27;20042;-59
2023/04/16 08:16:51;;;;;;;35.30;15.90;;;10.10;99.90;;;;;;5155354;27;20038;-61
2023/04/16 08:19:16;;;;;;;39.92;17.48;;;10.20;99.90;;;;;;5155674;27;20122;-61
2023/04/16 08:21:42;;;;;;;37.80;16.20;;;10.30;99.90;;;;;;5155246;27;20541;-61
2023/04/16 08:24:08;;;;;;;41.38;17.08;;;10.50;99.90;;;;;;5155515;27;20093;-61
2023/04/16 08:26:34;;;;;;;35.88;17.20;;;10.60;99.90;;;;;;5155249;27;20035;-60
2023/04/16 08:28:59;;;;;;;36.47;16.08;;;10.60;99.90;;;;;;5155102;27;20030;-61
2023/04/16 08:31:25;;;;;;;39.13;15.32;;;10.80;99.90;;;;;;5155381;27;20039;-61
2023/04/16 08:33:51;;;;;;;39.40;16.42;;;10.90;99.90;;;;;;5154643;27;20045;-61
2023/04/16 08:36:16;;;;;;;44.03;15.52;;;11.00;99.90;;;;;;5154872;27;20055;-61
2023/04/16 08:38:42;;;;;;;39.35;16.50;;;11.10;99.90;;;;;;5154126;27;20126;-61
2023/04/16 08:41:11;;;;;;;42.47;16.85;;;11.20;99.90;;;;;;5135756;27;20035;-61
2023/04/16 08:43:38;;;;;;;37.92;16.48;;;11.30;99.90;;;;;;5134175;27;20035;-61
2023/04/16 08:46:07;;;;;;;42.83;16.70;;;11.40;99.90;;;;;;5133630;27;20135;-61
2023/04/16 08:48:34;;;;;;;34.72;14.52;;;11.50;99.90;;;;;;5134250;27;20027;-61
2023/04/16 08:51:00;;;;;;;35.28;16.13;;;11.60;99.90;;;;;;5134298;27;20079;-61
2023/04/16 08:53:41;;;;;;;35.90;14.93;;;11.60;99.90;;;;;;5145606;27;20105;-61
2023/04/16 08:56:10;;;;;;;34.70;16.70;;;11.70;99.90;;;;;;5154682;27;20035;-61
2023/04/16 08:58:37;;;;;;;31.80;15.25;;;11.80;99.90;;;;;;5154724;27;20046;-61
2023/04/16 09:01:03;;;;;;;35.58;15.02;;;12.00;99.90;;;;;;5154308;27;20043;-61
2023/04/16 09:03:31;;;;;;;30.02;15.43;;;12.00;99.90;;;;;;5154665;27;20042;-61
2023/04/16 09:05:58;;;;;;;35.70;15.25;;;12.00;99.90;;;;;;5154555;27;20369;-61
2023/04/16 09:08:28;;;;;;;37.67;15.85;;;12.00;99.90;;;;;;5153731;27;20034;-61
2023/04/16 09:10:55;;;;;;;32.13;16.88;;;12.20;99.90;;;;;;5147197;27;20031;-61
2023/04/16 09:13:22;;;;;;;34.33;14.90;;;12.30;99.90;;;;;;5145300;27;20039;-61
2023/04/16 09:15:55;;;;;;;34.83;16.75;;;12.40;99.90;;;;;;5144651;27;20034;-61
2023/04/16 09:18:21;;;;;;;43.45;16.00;;;12.50;99.90;;;;;;5144245;27;20117;-61
2023/04/16 09:20:48;;;;;;;42.63;16.13;;;12.60;99.90;;;;;;5131846;27;20043;-62
2023/04/16 09:23:14;;;;;;;35.88;15.18;;;12.70;99.90;;;;;;5133108;27;20551;-61
2023/04/16 09:25:40;;;;;;;34.75;15.68;;;12.70;99.90;;;;;;5144117;27;20114;-62
2023/04/16 09:28:05;;;;;;;38.72;16.20;;;12.70;99.90;;;;;;5142851;27;20075;-61
2023/04/16 09:30:32;;;;;;;36.05;16.70;;;12.80;99.90;;;;;;5143558;27;20027;-58
2023/04/16 09:33:23;;;;;;;32.72;15.07;;;12.80;99.90;;;;;;5143477;27;20035;-58
2023/04/16 09:35:51;;;;;;;32.65;14.73;;;13.00;99.90;;;;;;5037907;28;20048;-58
2023/04/16 09:38:18;;;;;;;33.28;16.63;;;12.90;99.90;;;;;;5047457;28;20103;-59
2023/04/16 09:40:43;;;;;;;32.92;15.38;;;12.90;99.90;;;;;;5038292;28;20045;-59
2023/04/16 09:43:14;;;;;;;36.10;14.73;;;13.00;99.90;;;;;;5015400;28;20472;-59
2023/04/16 09:45:53;;;;;;;36.03;16.35;;;13.10;99.90;;;;;;5034265;28;20041;-59
2023/04/16 09:48:37;;;;;;;29.42;13.90;;;13.10;99.90;;;;;;5047961;28;20033;-59
2023/04/16 09:51:05;;;;;;;29.67;13.68;;;13.20;99.90;;;;;;5052140;28;20041;-59
2023/04/16 09:53:31;;;;;;;31.58;14.82;;;13.30;99.90;;;;;;5053269;28;20095;-59
2023/04/16 09:55:56;;;;;;;34.30;14.50;;;13.20;99.90;;;;;;5053124;28;20438;-59
2023/04/16 09:58:25;;;;;;;31.02;14.57;;;13.20;99.90;;;;;;5053183;28;20120;-59
2023/04/16 10:01:01;;;;;;;;;;;13.20;99.90;;;;;;5053456;28;20041;-59
2023/04/16 10:03:31;;;;;;;39.83;14.90;;;13.30;99.90;;;;;;5053090;28;19923;-59
2023/04/16 10:06:07;;;;;;;26.52;14.57;;;13.30;99.90;;;;;;5052956;28;20049;-59
2023/04/16 10:08:32;;;;;;;33.03;15.20;;;13.40;99.90;;;;;;5053206;28;20037;-59
2023/04/16 10:10:58;;;;;;;29.52;13.85;;;13.40;99.90;;;;;;5052874;28;20494;-59
2023/04/16 10:13:26;;;;;;;34.22;13.23;;;13.50;99.90;;;;;;5132799;27;20038;-59
2023/04/16 10:15:55;;;;;;;32.83;13.90;;;13.50;99.90;;;;;;5146983;27;20136;-59
2023/04/16 10:18:21;;;;;;;37.15;14.27;;;13.70;99.90;;;;;;5123697;27;20072;-59
2023/04/16 10:20:49;;;;;;;29.67;13.30;;;13.70;99.90;;;;;;5136329;27;20106;-59
2023/04/16 10:23:14;;;;;;;33.05;14.93;;;13.70;99.90;;;;;;5136452;27;20054;-59
2023/04/16 10:25:41;;;;;;;35.25;15.18;;;13.70;99.90;;;;;;5136082;27;20385;-59
2023/04/16 10:28:09;;;;;;;38.25;16.35;;;13.80;99.90;;;;;;5141621;27;20527;-59
2023/04/16 10:30:36;;;;;;;27.50;13.50;;;13.80;99.90;;;;;;5145772;27;20042;-59
2023/04/16 10:33:03;;;;;;;28.52;13.50;;;13.90;99.90;;;;;;5147451;27;20481;-59
2023/04/16 10:35:29;;;;;;;36.72;14.93;;;14.00;99.90;;;;;;5148375;27;20068;-59
2023/04/16 10:37:56;;;;;;;29.50;13.40;;;14.00;99.90;;;;;;5134928;27;20458;-58
2023/04/16 10:40:26;;;;;;;31.60;14.43;;;14.10;99.90;;;;;;5133233;27;20035;-59
2023/04/16 10:43:00;;;;;;;27.17;13.48;;;14.00;99.90;;;;;;5135933;27;20053;-58
2023/04/16 10:45:31;;;;;;;24.17;13.90;;;14.20;99.90;;;;;;5147879;27;20035;-59
2023/04/16 10:47:57;;;;;;;31.77;14.27;;;14.20;99.90;;;;;;5137922;27;20039;-58
2023/04/16 10:50:23;;;;;;;28.13;13.85;;;14.30;99.90;;;;;;5156720;27;20046;-59
2023/04/16 10:53:09;;;;;;;29.30;13.60;;;14.30;99.90;;;;;;5153374;27;20385;-59
2023/04/16 10:55:37;;;;;;;24.55;12.38;;;14.40;99.90;;;;;;5137935;27;20396;-59
2023/04/16 10:58:26;;;;;;;32.00;13.20;;;14.50;99.90;;;;;;5156392;27;20039;-59
2023/04/16 11:00:52;;;;;;;26.40;13.73;;;14.40;99.90;;;;;;5135921;27;20038;-59
2023/04/16 11:03:17;;;;;;;26.00;14.00;;;14.30;99.90;;;;;;5148972;27;20037;-59
2023/04/16 11:05:46;;;;;;;27.08;13.80;;;14.30;99.90;;;;;;5156191;27;20045;-59
2023/04/16 11:08:13;;;;;;;;;;;14.30;99.90;;;;;;5136890;27;20027;-59
2023/04/16 11:10:38;;;;;;;27.17;14.77;;;14.20;99.90;;;;;;5151014;27;19915;-60
2023/04/16 11:13:05;;;;;;;30.10;14.10;;;13.90;99.90;;;;;;5150015;27;20039;-59
2023/04/16 11:15:32;;;;;;;33.28;15.15;;;13.70;99.90;;;;;;5155710;27;20069;-62
2023/04/16 11:17:58;;;;;;;28.77;13.93;;;13.70;99.90;;;;;;5154359;27;20050;-61
2023/04/16 11:20:25;;;;;;;31.38;15.82;;;13.60;99.90;;;;;;5155655;27;20090;-61
2023/04/16 11:22:53;;;;;;;27.25;15.02;;;13.60;99.90;;;;;;5154343;27;20039;-59
2023/04/16 11:25:23;;;;;;;31.23;14.57;;;13.70;99.90;;;;;;5155634;27;20077;-59
2023/04/16 11:27:50;;;;;;;29.17;13.98;;;13.90;99.90;;;;;;5137236;27;20042;-59
2023/04/16 11:30:16;;;;;;;26.58;13.63;;;14.00;99.90;;;;;;5136911;27;20053;-57
2023/04/16 11:32:43;;;;;;;23.77;13.27;;;13.90;99.90;;;;;;5155494;27;20477;-60
2023/04/16 11:35:18;;;;;;;28.38;13.93;;;14.10;99.90;;;;;;5136681;27;20054;-60
2023/04/16 11:37:45;;;;;;;30.58;14.80;;;14.20;99.90;;;;;;5155402;27;20082;-62
2023/04/16 11:40:11;;;;;;;26.42;13.98;;;14.10;99.90;;;;;;5156060;27;20046;-62
2023/04/16 11:42:41;;;;;;;28.00;14.15;;;14.30;99.90;;;;;;5156097;27;20048;-62
2023/04/16 11:45:09;;;;;;;26.30;13.88;;;14.20;99.90;;;;;;5136025;27;20067;-60
2023/04/16 11:47:52;;;;;;;31.55;15.32;;;14.50;99.90;;;;;;5146024;27;20117;-59
2023/04/16 11:50:22;;;;;;;29.75;14.52;;;14.50;99.90;;;;;;5155588;27;20083;-62
2023/04/16 11:52:50;;;;;;;26.80;14.57;;;14.60;99.90;;;;;;5099114;27;20043;-62
2023/04/16 11:55:16;;;;;;;30.52;14.60;;;14.80;99.90;;;;;;5145259;27;20122;-61
2023/04/16 11:57:42;;;;;;;26.52;15.55;;;14.70;99.90;;;;;;5155655;27;20118;-62
2023/04/16 12:00:12;;;;;;;31.77;15.65;;;14.80;99.90;;;;;;5155032;27;20162;-59
2023/04/16 12:02:44;;;;;;;26.75;14.90;;;14.80;99.90;;;;;;5151920;27;20031;-59
2023/04/16 12:05:34;;;;;;;24.33;14.20;;;14.80;99.90;;;;;;5124081;27;20055;-62
2023/04/16 12:08:05;;;;;;;21.70;13.13;;;14.90;99.90;;;;;;5144102;27;20031;-58
2023/04/16 12:10:37;;;;;;;23.85;14.70;;;14.90;99.90;;;;;;5143263;27;20042;-58
2023/04/16 12:13:10;;;;;;;27.15;13.27;;;14.80;99.90;;;;;;5136428;27;20038;-58
2023/04/16 12:15:52;;;;;;;19.30;12.05;;;14.80;99.90;;;;;;5147944;27;20472;-61
2023/04/16 12:18:21;;;;;;;27.63;14.02;;;14.70;99.90;;;;;;5151575;27;20057;-61
2023/04/16 12:20:48;;;;;;;25.42;13.75;;;14.70;99.90;;;;;;5146844;27;20085;-61
2023/04/16 12:23:31;;;;;;;26.80;15.63;;;14.70;99.90;;;;;;5154908;27;20195;-60
2023/04/16 12:26:01;;;;;;;25.70;13.07;;;14.60;99.90;;;;;;5132679;27;20043;-61
2023/04/16 12:28:32;;;;;;;26.77;14.68;;;14.60;99.90;;;;;;5154794;27;20532;-58
2023/04/16 12:30:58;;;;;;;23.42;13.75;;;14.60;99.90;;;;;;5154703;27;20034;-60
2023/04/16 12:33:24;;;;;;;25.00;15.63;;;14.60;99.90;;;;;;5154920;27;20045;-60